Time;durP1;ratioP1;P1;durP2;ratioP2;P2;SDS_P1;SDS_P2;PMS_P1;PMS_P2;Temp;Humidity;BMP_temperature;BMP_pressure;BME280_temperature;BME280_humidity;BME280_pressure;Samples;Min_cycle;Max_cycle;Signal;HPM_P1;HPM_P2
2022/07/05 00:01:05;;;;;;;1.97;1.87;;;14.10;99.90;;;;;;4985002;28;20539;-52
2022/07/05 00:03:32;;;;;;;1.97;1.87;;;14.10;99.90;;;;;;4985391;28;21056;-53
2022/07/05 00:05:58;;;;;;;1.80;1.70;;;14.00;99.90;;;;;;4981559;28;20556;-53
2022/07/05 00:08:25;;;;;;;5.47;2.00;;;14.00;99.90;;;;;;4988526;28;20460;-53
2022/07/05 00:10:53;;;;;;;2.00;1.53;;;14.00;99.90;;;;;;4978554;28;20959;-53
2022/07/05 00:13:20;;;;;;;2.03;1.83;;;13.90;99.90;;;;;;4979576;28;20598;-53
2022/07/05 00:15:47;;;;;;;1.60;1.50;;;13.90;99.90;;;;;;4975648;28;20536;-52
2022/07/05 00:18:14;;;;;;;1.93;1.73;;;14.00;99.90;;;;;;4969580;28;20664;-52
2022/07/05 00:20:40;;;;;;;2.37;2.20;;;14.00;99.90;;;;;;4970287;28;20496;-53
2022/07/05 00:23:07;;;;;;;1.63;1.53;;;14.00;99.90;;;;;;4971535;28;20516;-52
2022/07/05 00:25:34;;;;;;;1.40;1.37;;;13.90;99.90;;;;;;4980797;28;20461;-52
2022/07/05 00:28:03;;;;;;;1.70;1.60;;;13.90;99.90;;;;;;4977632;28;22533;-52
2022/07/05 00:30:30;;;;;;;2.03;1.87;;;13.90;99.90;;;;;;4980184;28;20481;-52
2022/07/05 00:32:57;;;;;;;3.77;2.10;;;13.80;99.90;;;;;;4980018;28;20484;-52
2022/07/05 00:35:23;;;;;;;2.40;1.90;;;13.80;99.90;;;;;;4985663;28;20516;-52
2022/07/05 00:37:50;;;;;;;4.40;1.70;;;13.70;99.90;;;;;;4981910;28;20466;-54
2022/07/05 00:40:16;;;;;;;3.73;2.30;;;13.70;99.90;;;;;;4988886;28;21012;-51
2022/07/05 00:42:43;;;;;;;1.50;1.40;;;13.80;99.90;;;;;;4984936;28;20606;-52
2022/07/05 00:45:12;;;;;;;1.97;1.70;;;13.80;99.90;;;;;;4986370;28;20838;-53
2022/07/05 00:47:39;;;;;;;2.70;2.00;;;13.80;99.90;;;;;;4989589;28;20460;-53
2022/07/05 00:50:06;;;;;;;2.33;2.13;;;13.80;99.90;;;;;;4983307;28;20464;-52
2022/07/05 00:52:33;;;;;;;2.63;1.97;;;13.70;99.90;;;;;;4977117;28;20830;-53
2022/07/05 00:55:00;;;;;;;3.50;1.80;;;13.70;99.90;;;;;;5006964;23;20484;-55
2022/07/05 00:57:26;;;;;;;2.67;2.10;;;13.60;99.90;;;;;;5010350;28;20475;-56
2022/07/05 00:59:53;;;;;;;2.33;2.10;;;13.60;99.90;;;;;;5003787;28;20460;-56
2022/07/05 01:02:23;;;;;;;5.33;2.37;;;13.50;99.90;;;;;;5006329;28;20830;-56
2022/07/05 01:04:51;;;;;;;2.30;2.10;;;13.40;99.90;;;;;;5000692;28;20478;-55
2022/07/05 01:07:19;;;;;;;2.13;1.90;;;13.50;99.90;;;;;;4997259;28;20511;-54
2022/07/05 01:09:46;;;;;;;4.60;2.33;;;13.50;99.90;;;;;;4992662;28;20538;-54
2022/07/05 01:12:13;;;;;;;8.13;1.77;;;13.50;99.90;;;;;;5002402;28;20530;-55
2022/07/05 01:14:43;;;;;;;1.70;1.60;;;13.60;99.90;;;;;;5004166;28;20492;-54
2022/07/05 01:17:10;;;;;;;3.47;2.40;;;13.50;99.90;;;;;;5007027;28;20481;-54
2022/07/05 01:19:38;;;;;;;1.87;1.77;;;13.50;99.90;;;;;;5009806;28;20522;-55
2022/07/05 01:22:13;;;;;;;4.63;1.73;;;13.50;99.90;;;;;;5000051;28;20474;-55
2022/07/05 01:24:41;;;;;;;2.80;2.47;;;13.50;99.90;;;;;;5008652;28;20478;-55
2022/07/05 01:27:08;;;;;;;4.40;1.50;;;13.50;99.90;;;;;;5011731;28;20977;-55
2022/07/05 01:29:35;;;;;;;1.77;1.67;;;13.50;99.90;;;;;;5005837;28;20455;-55
2022/07/05 01:32:01;;;;;;;7.30;1.80;;;13.40;99.90;;;;;;5008980;28;20463;-54
2022/07/05 01:34:28;;;;;;;4.40;1.93;;;13.40;99.90;;;;;;5005931;28;20487;-56
2022/07/05 01:36:55;;;;;;;2.07;1.90;;;13.40;99.90;;;;;;5012433;28;20484;-55
2022/07/05 01:39:22;;;;;;;3.23;1.83;;;13.40;99.90;;;;;;5007101;28;20466;-55
2022/07/05 01:41:50;;;;;;;3.80;2.43;;;13.40;99.90;;;;;;5006701;28;20464;-55
2022/07/05 01:44:17;;;;;;;3.93;1.97;;;13.30;99.90;;;;;;5003544;28;22763;-55
2022/07/05 01:46:44;;;;;;;2.17;1.97;;;13.30;99.90;;;;;;5003530;28;20455;-55
2022/07/05 01:49:13;;;;;;;1.70;1.53;;;13.40;99.90;;;;;;5004813;28;20955;-55
2022/07/05 01:51:42;;;;;;;2.50;2.30;;;13.40;99.90;;;;;;5006126;28;20460;-55
2022/07/05 01:54:09;;;;;;;5.40;2.40;;;13.30;99.90;;;;;;4995396;28;20604;-56
2022/07/05 01:56:38;;;;;;;2.20;2.00;;;13.20;99.90;;;;;;5012200;28;20675;-56
2022/07/05 01:59:07;;;;;;;3.03;1.93;;;13.20;99.90;;;;;;5011245;28;20960;-55
2022/07/05 02:01:35;;;;;;;2.83;2.20;;;13.10;99.90;;;;;;5003788;28;20461;-56
2022/07/05 02:04:04;;;;;;;2.70;2.30;;;13.10;99.90;;;;;;5004057;28;20474;-56
2022/07/05 02:06:32;;;;;;;2.03;1.83;;;13.10;99.90;;;;;;5005987;28;20452;-55
2022/07/05 02:08:59;;;;;;;2.80;1.80;;;13.10;99.90;;;;;;5004421;28;20460;-56
2022/07/05 02:11:25;;;;;;;2.60;1.80;;;13.20;99.90;;;;;;5002152;28;20969;-55
2022/07/05 02:13:52;;;;;;;10.77;3.30;;;13.10;99.90;;;;;;5003404;28;20988;-56
2022/07/05 02:16:23;;;;;;;3.60;2.40;;;13.00;99.90;;;;;;5013478;28;20992;-55
2022/07/05 02:18:49;;;;;;;2.50;1.80;;;12.90;99.90;;;;;;5007580;28;20455;-55
2022/07/05 02:21:16;;;;;;;8.43;1.70;;;12.90;99.90;;;;;;5001079;28;21172;-55
2022/07/05 02:23:43;;;;;;;2.77;1.80;;;12.90;99.90;;;;;;5000550;28;20492;-55
2022/07/05 02:26:09;;;;;;;3.53;2.00;;;12.80;99.90;;;;;;5002163;28;20471;-55
2022/07/05 02:28:36;;;;;;;1.90;1.80;;;12.80;99.90;;;;;;5005443;28;20464;-56
2022/07/05 02:31:02;;;;;;;2.10;2.00;;;12.80;99.90;;;;;;5004529;28;20551;-56
2022/07/05 02:33:30;;;;;;;1.90;1.70;;;12.90;99.90;;;;;;5009444;28;20487;-56
2022/07/05 02:35:58;;;;;;;3.53;1.90;;;12.80;99.90;;;;;;5010501;28;20467;-55
2022/07/05 02:38:24;;;;;;;2.97;1.80;;;12.80;99.90;;;;;;5011583;28;20470;-55
2022/07/05 02:40:51;;;;;;;3.73;1.83;;;12.80;99.90;;;;;;5009839;28;20460;-56
2022/07/05 02:43:18;;;;;;;3.23;1.90;;;12.80;99.90;;;;;;5005074;28;20494;-55
2022/07/05 02:45:44;;;;;;;2.00;1.90;;;12.70;99.90;;;;;;5017864;28;20506;-55
2022/07/05 02:48:11;;;;;;;1.40;1.30;;;12.70;99.90;;;;;;5017419;28;20467;-55
2022/07/05 02:50:39;;;;;;;2.10;2.00;;;12.60;99.90;;;;;;5011352;28;20506;-55
2022/07/05 02:53:06;;;;;;;1.80;1.70;;;12.60;99.90;;;;;;5011057;28;20455;-55
2022/07/05 02:55:32;;;;;;;2.90;1.67;;;12.60;99.90;;;;;;5001947;28;20471;-54
2022/07/05 02:57:59;;;;;;;2.30;2.00;;;12.60;99.90;;;;;;5006487;28;20546;-55
2022/07/05 03:00:25;;;;;;;3.67;2.10;;;12.60;99.90;;;;;;5005591;28;20577;-55
2022/07/05 03:02:52;;;;;;;2.50;2.00;;;12.60;99.90;;;;;;5006546;28;20545;-54
2022/07/05 03:05:19;;;;;;;2.47;2.10;;;12.70;99.90;;;;;;5008649;28;20482;-55
2022/07/05 03:07:47;;;;;;;1.63;1.53;;;12.60;99.90;;;;;;5004764;28;20457;-54
2022/07/05 03:10:13;;;;;;;2.20;2.00;;;12.60;99.90;;;;;;5008458;28;21010;-55
2022/07/05 03:12:40;;;;;;;2.90;2.10;;;12.60;99.90;;;;;;4997246;28;20463;-55
2022/07/05 03:15:08;;;;;;;2.90;2.00;;;12.60;99.90;;;;;;5006377;28;20546;-55
2022/07/05 03:17:35;;;;;;;2.13;1.63;;;12.50;99.90;;;;;;5010160;28;20538;-55
2022/07/05 03:20:01;;;;;;;2.20;1.80;;;12.60;99.90;;;;;;5004218;28;20472;-55
2022/07/05 03:22:28;;;;;;;2.10;2.00;;;12.60;99.90;;;;;;5005000;28;20494;-56
2022/07/05 03:24:56;;;;;;;3.63;2.43;;;12.60;99.90;;;;;;4999960;28;21009;-55
2022/07/05 03:27:22;;;;;;;1.93;1.83;;;12.60;99.90;;;;;;5000679;28;20453;-54
2022/07/05 03:29:49;;;;;;;2.00;1.90;;;12.60;99.90;;;;;;5003839;28;20468;-55
2022/07/05 03:32:16;;;;;;;2.20;2.00;;;12.60;99.90;;;;;;5000782;28;20460;-54
2022/07/05 03:34:42;;;;;;;2.20;2.10;;;12.60;99.90;;;;;;5008583;28;20549;-54
2022/07/05 03:37:09;;;;;;;2.47;2.10;;;12.70;99.90;;;;;;5007233;28;20541;-56
2022/07/05 03:39:35;;;;;;;3.40;2.10;;;12.80;99.90;;;;;;5011772;28;20459;-55
2022/07/05 03:42:04;;;;;;;2.27;2.07;;;12.80;99.90;;;;;;4998081;28;20879;-54
2022/07/05 03:44:32;;;;;;;2.17;2.07;;;12.80;99.90;;;;;;5001681;28;20538;-55
2022/07/05 03:46:59;;;;;;;2.07;1.97;;;12.80;99.90;;;;;;5004079;28;21346;-54
2022/07/05 03:49:26;;;;;;;2.00;1.90;;;12.90;99.90;;;;;;5005336;28;20946;-54
2022/07/05 03:51:53;;;;;;;1.83;1.73;;;12.90;99.90;;;;;;5004192;28;20468;-53
2022/07/05 03:54:19;;;;;;;2.77;1.80;;;12.90;99.90;;;;;;5001290;28;20495;-53
2022/07/05 03:56:46;;;;;;;1.97;1.90;;;13.00;99.90;;;;;;5002600;28;20558;-54
2022/07/05 03:59:14;;;;;;;2.30;2.07;;;12.90;99.90;;;;;;5002996;28;20460;-53
2022/07/05 04:01:40;;;;;;;2.53;2.33;;;13.10;99.90;;;;;;5002878;28;20523;-54
2022/07/05 04:04:08;;;;;;;2.00;1.80;;;13.10;99.90;;;;;;5002627;28;20483;-53
2022/07/05 04:06:34;;;;;;;1.90;1.80;;;13.20;99.90;;;;;;5003823;28;20530;-54
2022/07/05 04:09:02;;;;;;;1.70;1.60;;;13.20;99.90;;;;;;5004020;28;20519;-57
2022/07/05 04:11:29;;;;;;;3.33;1.83;;;13.20;99.90;;;;;;5003437;28;20506;-54
2022/07/05 04:13:55;;;;;;;2.60;2.27;;;13.30;99.90;;;;;;5003637;28;20502;-49
2022/07/05 04:16:23;;;;;;;3.50;2.33;;;13.30;99.90;;;;;;5004575;28;20469;-49
2022/07/05 04:18:50;;;;;;;6.50;3.00;;;13.40;99.90;;;;;;5001929;28;20459;-49
2022/07/05 04:21:16;;;;;;;2.20;2.00;;;13.50;99.90;;;;;;4998854;28;20467;-48
2022/07/05 04:23:43;;;;;;;5.40;2.27;;;13.50;99.90;;;;;;5006237;28;20487;-49
2022/07/05 04:26:10;;;;;;;2.93;2.13;;;13.60;99.90;;;;;;5002350;28;20490;-48
2022/07/05 04:28:36;;;;;;;2.30;2.10;;;13.80;99.90;;;;;;4995393;28;20866;-49
2022/07/05 04:31:03;;;;;;;5.23;2.37;;;13.80;99.90;;;;;;5000729;28;20463;-48
2022/07/05 04:33:31;;;;;;;2.60;2.33;;;13.90;99.90;;;;;;4998498;28;20484;-55
2022/07/05 04:35:57;;;;;;;2.60;2.40;;;14.00;99.90;;;;;;5007328;28;20451;-53
2022/07/05 04:38:24;;;;;;;1.97;1.87;;;14.10;99.90;;;;;;5005047;28;20483;-53
2022/07/05 04:40:51;;;;;;;3.67;2.27;;;14.20;99.90;;;;;;5009313;28;20460;-59
2022/07/05 04:43:17;;;;;;;2.40;2.20;;;14.30;99.90;;;;;;5002000;28;21012;-55
2022/07/05 04:45:44;;;;;;;7.57;1.80;;;14.40;99.90;;;;;;5005269;28;20521;-54
2022/07/05 04:48:11;;;;;;;2.30;1.70;;;14.50;99.90;;;;;;5012035;28;20459;-54
2022/07/05 04:50:39;;;;;;;6.60;2.73;;;14.50;99.90;;;;;;5007321;28;20478;-54
2022/07/05 04:53:05;;;;;;;4.60;2.20;;;14.70;99.90;;;;;;5005035;28;20457;-54
2022/07/05 04:55:32;;;;;;;8.73;1.97;;;14.70;99.90;;;;;;5004598;28;20564;-54
2022/07/05 04:57:59;;;;;;;11.00;2.17;;;14.80;99.90;;;;;;5015444;28;20480;-53
2022/07/05 05:00:25;;;;;;;5.20;2.80;;;14.90;99.90;;;;;;5007114;28;20805;-53
2022/07/05 05:02:53;;;;;;;5.43;2.07;;;14.90;99.90;;;;;;5007669;28;20511;-53
2022/07/05 05:05:20;;;;;;;6.50;3.10;;;15.00;99.90;;;;;;4995995;28;21064;-53
2022/07/05 05:07:48;;;;;;;5.13;1.90;;;15.10;99.90;;;;;;5003816;28;20447;-53
2022/07/05 05:10:14;;;;;;;9.07;1.93;;;15.20;99.90;;;;;;5006026;28;20460;-53
2022/07/05 05:12:41;;;;;;;5.80;2.50;;;15.20;99.90;;;;;;5010321;28;20464;-52
2022/07/05 05:15:09;;;;;;;4.37;2.13;;;15.30;99.90;;;;;;5005022;28;20541;-54
2022/07/05 05:17:37;;;;;;;5.43;2.63;;;15.40;99.90;;;;;;5012419;28;20953;-55
2022/07/05 05:20:07;;;;;;;11.20;2.23;;;15.40;99.90;;;;;;5008068;28;20832;-54
2022/07/05 05:22:33;;;;;;;8.97;2.57;;;15.50;99.90;;;;;;5011982;28;20463;-53
2022/07/05 05:25:01;;;;;;;11.17;2.57;;;15.60;99.90;;;;;;5012760;28;20932;-53
2022/07/05 05:27:28;;;;;;;6.93;2.20;;;15.70;99.90;;;;;;5012000;28;20482;-53
2022/07/05 05:29:55;;;;;;;18.73;2.83;;;15.80;99.90;;;;;;5005753;28;20976;-54
2022/07/05 05:32:21;;;;;;;28.47;2.80;;;15.80;99.90;;;;;;5006719;28;20518;-53
2022/07/05 05:34:48;;;;;;;9.20;2.10;;;16.00;99.90;;;;;;5014656;28;20483;-53
2022/07/05 05:37:15;;;;;;;12.93;2.80;;;16.00;99.90;;;;;;5009631;28;20478;-53
2022/07/05 05:39:42;;;;;;;22.13;2.53;;;16.10;99.90;;;;;;4997310;28;20468;-53
2022/07/05 05:42:10;;;;;;;11.23;2.80;;;16.20;99.90;;;;;;5003863;28;20524;-53
2022/07/05 05:44:37;;;;;;;14.73;2.27;;;16.20;99.90;;;;;;5002388;28;21021;-53
2022/07/05 05:47:04;;;;;;;8.93;2.53;;;16.30;99.90;;;;;;5003440;28;20468;-53
2022/07/05 05:49:31;;;;;;;14.83;2.57;;;16.40;99.90;;;;;;5005062;28;20456;-52
2022/07/05 05:51:57;;;;;;;6.90;2.10;;;16.50;99.90;;;;;;5004077;28;20458;-53
2022/07/05 05:54:24;;;;;;;5.80;1.63;;;16.50;99.90;;;;;;5007898;28;20553;-53
2022/07/05 05:56:50;;;;;;;10.13;1.93;;;16.60;73.80;;;;;;5011273;28;20525;-53
2022/07/05 05:59:18;;;;;;;18.53;2.27;;;16.70;21.70;;;;;;5007848;28;21211;-53
2022/07/05 06:01:45;;;;;;;21.57;2.57;;;16.70;21.20;;;;;;5003466;28;20460;-54
2022/07/05 06:04:11;;;;;;;8.20;2.80;;;16.80;26.10;;;;;;5009250;28;20483;-52
2022/07/05 06:06:38;;;;;;;16.50;2.47;;;16.90;28.10;;;;;;5007434;28;20456;-53
2022/07/05 06:09:05;;;;;;;13.40;1.87;;;17.00;40.70;;;;;;5013822;28;20466;-54
2022/07/05 06:11:31;;;;;;;3.73;1.57;;;17.00;71.70;;;;;;5010295;28;20452;-54
2022/07/05 06:13:58;;;;;;;7.93;2.20;;;17.20;75.50;;;;;;5011258;28;20471;-54
2022/07/05 06:16:26;;;;;;;9.33;1.70;;;17.30;79.30;;;;;;5009387;28;20962;-53
2022/07/05 06:18:52;;;;;;;3.13;1.37;;;17.40;94.60;;;;;;5012170;28;20475;-54
2022/07/05 06:21:19;;;;;;;6.27;1.53;;;17.40;96.60;;;;;;5006795;28;20472;-54
2022/07/05 06:23:46;;;;;;;1.33;1.20;;;17.50;99.90;;;;;;5001167;28;20995;-53
2022/07/05 06:26:12;;;;;;;3.60;1.40;;;17.60;99.90;;;;;;5010211;28;20522;-54
2022/07/05 06:28:39;;;;;;;3.10;1.40;;;17.60;99.90;;;;;;5005730;28;20467;-54
2022/07/05 06:31:06;;;;;;;3.73;1.30;;;17.60;99.90;;;;;;5007553;28;20971;-54
2022/07/05 06:33:34;;;;;;;4.90;1.87;;;17.70;99.90;;;;;;5009873;28;21140;-54
2022/07/05 06:36:01;;;;;;;4.50;1.40;;;17.70;99.90;;;;;;5011216;28;20534;-53
2022/07/05 06:38:27;;;;;;;1.60;1.50;;;17.80;99.90;;;;;;5012767;28;20479;-53
2022/07/05 06:40:56;;;;;;;4.93;1.43;;;17.90;99.90;;;;;;5012484;28;20614;-53
2022/07/05 06:43:23;;;;;;;5.77;1.10;;;17.90;99.90;;;;;;5007806;28;20480;-53
2022/07/05 06:45:50;;;;;;;1.53;1.40;;;18.00;99.90;;;;;;5008877;28;20524;-54
2022/07/05 06:48:16;;;;;;;1.63;1.53;;;18.00;99.90;;;;;;5009837;28;20796;-53
2022/07/05 06:50:45;;;;;;;8.03;1.27;;;18.10;99.90;;;;;;5003219;28;20474;-53
2022/07/05 06:53:12;;;;;;;1.70;1.47;;;18.10;99.90;;;;;;5001431;28;20891;-53
2022/07/05 06:55:44;;;;;;;1.53;1.43;;;18.20;99.90;;;;;;5003607;23;20496;-52
2022/07/05 06:58:10;;;;;;;1.63;1.37;;;18.30;99.90;;;;;;4986803;28;20583;-53
2022/07/05 07:00:37;;;;;;;2.43;1.33;;;18.30;99.90;;;;;;4985498;28;20465;-53
2022/07/05 07:03:04;;;;;;;4.07;1.43;;;18.40;99.90;;;;;;4985355;28;20472;-52
2022/07/05 07:05:30;;;;;;;1.30;1.20;;;18.50;99.90;;;;;;4983970;28;20993;-52
2022/07/05 07:10:42;;;;;;;1.83;1.13;;;18.60;99.90;;;;;;4976472;28;20456;-53
2022/07/05 07:13:09;;;;;;;1.33;1.23;;;18.70;99.90;;;;;;4979992;28;20499;-52
2022/07/05 07:15:37;;;;;;;3.27;1.80;;;18.80;99.90;;;;;;4982184;28;20480;-52
2022/07/05 07:18:04;;;;;;;7.13;1.70;;;18.90;99.90;;;;;;4980004;28;20902;-52
2022/07/05 07:20:31;;;;;;;3.27;1.40;;;19.00;99.90;;;;;;4983388;28;20464;-53
2022/07/05 07:22:59;;;;;;;3.13;1.40;;;19.10;99.90;;;;;;4982078;28;20462;-53
2022/07/05 07:25:26;;;;;;;2.30;1.47;;;19.10;99.90;;;;;;4980849;28;20480;-53
2022/07/05 07:27:55;;;;;;;1.30;1.20;;;19.10;99.90;;;;;;4986722;28;20457;-52
2022/07/05 07:30:24;;;;;;;3.83;1.33;;;19.10;99.90;;;;;;4982991;28;20857;-52
2022/07/05 07:32:50;;;;;;;3.43;1.20;;;19.10;99.90;;;;;;4987638;28;20465;-53
2022/07/05 07:35:17;;;;;;;1.80;1.17;;;19.10;99.90;;;;;;4981491;28;20512;-52
2022/07/05 07:37:43;;;;;;;2.00;1.27;;;19.20;99.90;;;;;;4989919;28;20480;-52
2022/07/05 07:40:12;;;;;;;25.10;1.70;;;19.20;99.90;;;;;;4981639;28;21030;-52
2022/07/05 07:42:39;;;;;;;10.40;3.10;;;19.20;99.90;;;;;;4980817;28;21015;-53
2022/07/05 07:45:07;;;;;;;3.53;1.30;;;19.30;99.90;;;;;;4984088;28;20480;-53
2022/07/05 07:47:34;;;;;;;3.67;1.63;;;19.40;99.90;;;;;;4981780;28;20495;-53
2022/07/05 07:50:01;;;;;;;7.20;1.57;;;19.40;99.90;;;;;;4987261;28;20461;-52
2022/07/05 07:52:30;;;;;;;2.77;1.20;;;19.50;99.90;;;;;;4986599;28;20519;-52
2022/07/05 07:54:56;;;;;;;5.90;1.50;;;19.70;99.90;;;;;;4989386;28;20579;-53
2022/07/05 07:57:24;;;;;;;4.87;1.60;;;19.80;99.90;;;;;;4984449;28;21241;-53
2022/07/05 07:59:51;;;;;;;3.07;1.40;;;19.80;99.90;;;;;;4980972;28;20544;-53
2022/07/05 08:02:21;;;;;;;1.93;1.63;;;19.90;99.90;;;;;;4981970;28;20492;-53
2022/07/05 08:04:47;;;;;;;2.00;1.60;;;20.00;99.90;;;;;;4985943;28;20512;-52
2022/07/05 08:07:14;;;;;;;1.80;1.10;;;20.10;99.90;;;;;;4988553;28;20962;-52
2022/07/05 08:09:40;;;;;;;2.10;1.30;;;20.10;99.90;;;;;;4983195;28;20459;-53
2022/07/05 08:12:08;;;;;;;1.97;1.53;;;20.20;99.90;;;;;;4988528;28;20522;-52
2022/07/05 08:14:36;;;;;;;2.10;1.10;;;20.30;99.90;;;;;;4984752;28;20536;-52
2022/07/05 08:17:07;;;;;;;7.43;1.40;;;20.30;99.90;;;;;;4979905;28;20472;-52
2022/07/05 08:22:19;;;;;;;1.00;1.00;;;20.30;99.90;;;;;;4984210;28;20459;-53
2022/07/05 08:24:46;;;;;;;1.50;1.40;;;20.40;99.90;;;;;;4984738;28;20476;-52
2022/07/05 08:27:12;;;;;;;2.10;1.40;;;20.40;99.90;;;;;;4983445;28;20461;-52
2022/07/05 08:29:40;;;;;;;3.50;1.30;;;20.40;99.90;;;;;;4988057;28;20513;-53
2022/07/05 08:32:08;;;;;;;6.17;1.53;;;20.50;99.90;;;;;;4983430;28;20527;-53
2022/07/05 08:34:35;;;;;;;3.17;1.53;;;20.60;99.90;;;;;;4989178;28;20531;-53
2022/07/05 08:37:01;;;;;;;10.70;1.60;;;20.70;99.90;;;;;;4983934;28;20535;-52
2022/07/05 08:39:29;;;;;;;5.90;2.20;;;20.70;99.90;;;;;;4980291;28;20578;-53
2022/07/05 08:41:57;;;;;;;3.00;1.33;;;20.70;99.90;;;;;;4986322;28;20872;-53
2022/07/05 08:44:24;;;;;;;3.03;1.73;;;20.80;99.90;;;;;;4989959;28;20492;-53
2022/07/05 08:46:53;;;;;;;1.67;1.33;;;20.90;99.90;;;;;;4991298;28;20519;-53
2022/07/05 08:49:23;;;;;;;1.80;1.10;;;21.00;99.90;;;;;;4984958;28;20534;-53
2022/07/05 08:51:50;;;;;;;2.10;1.30;;;21.00;99.90;;;;;;4982957;28;20583;-53
2022/07/05 08:54:18;;;;;;;4.10;1.60;;;21.00;99.90;;;;;;4982605;28;20885;-53
2022/07/05 08:56:45;;;;;;;6.37;2.03;;;21.00;99.90;;;;;;4989638;28;20495;-52
2022/07/05 08:59:12;;;;;;;2.40;1.50;;;21.10;99.90;;;;;;4982028;28;20520;-52
2022/07/05 09:01:39;;;;;;;6.10;1.40;;;21.20;99.90;;;;;;4985314;28;20547;-54
2022/07/05 09:04:10;;;;;;;2.63;1.43;;;21.20;99.90;;;;;;4987139;28;20473;-52
2022/07/05 09:06:39;;;;;;;3.10;1.37;;;21.30;99.90;;;;;;4990383;28;20460;-53
2022/07/05 09:09:06;;;;;;;6.03;1.27;;;21.50;99.90;;;;;;4979392;28;20474;-53
2022/07/05 09:11:37;;;;;;;8.90;1.60;;;21.60;99.90;;;;;;4980572;28;20966;-52
2022/07/05 09:14:05;;;;;;;4.00;1.27;;;21.80;99.90;;;;;;4982086;28;20499;-53
2022/07/05 09:16:33;;;;;;;1.03;1.03;;;21.90;99.90;;;;;;4981352;28;20879;-52
2022/07/05 09:19:06;;;;;;;3.40;1.60;;;21.90;99.90;;;;;;4984231;28;20512;-52
2022/07/05 09:21:35;;;;;;;1.47;1.40;;;21.90;99.90;;;;;;4979625;28;20962;-54
2022/07/05 09:24:04;;;;;;;2.20;1.30;;;22.00;1.40;;;;;;4991918;28;20538;-53
2022/07/05 09:26:35;;;;;;;13.20;1.03;;;22.00;99.90;;;;;;4986053;28;20469;-53
2022/07/05 09:29:03;;;;;;;3.30;1.80;;;22.10;99.90;;;;;;4978583;28;20456;-53
2022/07/05 09:31:32;;;;;;;4.03;1.53;;;22.10;99.90;;;;;;4976767;28;20487;-53
2022/07/05 09:34:06;;;;;;;2.13;1.20;;;22.20;99.90;;;;;;4982931;28;20499;-52
2022/07/05 09:36:54;;;;;;;1.63;1.40;;;22.30;99.90;;;;;;4977864;28;20461;-52
2022/07/05 09:39:37;;;;;;;4.60;1.40;;;22.20;1.40;;;;;;4992293;28;20984;-52
2022/07/05 09:42:17;;;;;;;10.30;1.70;;;22.10;99.90;;;;;;4991661;28;20460;-52
2022/07/05 09:44:45;;;;;;;5.43;1.93;;;22.10;99.90;;;;;;4982399;28;20491;-52
2022/07/05 09:47:13;;;;;;;6.93;1.60;;;21.90;99.90;;;;;;4986019;28;20863;-50
2022/07/05 09:49:43;;;;;;;5.90;1.37;;;21.90;99.90;;;;;;4990946;28;20448;-53
2022/07/05 09:52:11;;;;;;;3.47;1.03;;;21.90;99.90;;;;;;4980148;28;20803;-51
2022/07/05 09:54:38;;;;;;;3.70;2.00;;;22.00;99.90;;;;;;4983061;28;20500;-53
2022/07/05 09:57:05;;;;;;;7.37;2.03;;;22.10;99.90;;;;;;4982033;28;20510;-52
2022/07/05 09:59:32;;;;;;;15.23;3.10;;;22.00;99.90;;;;;;4980273;28;21038;-52
2022/07/05 10:01:58;;;;;;;3.60;1.57;;;22.00;99.90;;;;;;4980570;28;20464;-51
2022/07/05 10:04:25;;;;;;;16.43;1.57;;;22.10;99.90;;;;;;4978682;28;20486;-52
2022/07/05 10:06:51;;;;;;;1.30;1.20;;;22.30;99.90;;;;;;4986276;28;20461;-53
2022/07/05 10:09:20;;;;;;;6.80;1.33;;;22.30;99.90;;;;;;4981221;28;20867;-52
2022/07/05 10:11:47;;;;;;;2.93;1.40;;;22.30;99.90;;;;;;4992638;28;20490;-53
2022/07/05 10:14:17;;;;;;;3.43;1.30;;;22.30;99.90;;;;;;4986938;28;20511;-53
2022/07/05 10:16:53;;;;;;;6.13;1.37;;;22.10;99.90;;;;;;4987240;28;20481;-53
2022/07/05 10:19:21;;;;;;;9.37;1.70;;;22.20;99.90;;;;;;4985022;28;21011;-53
2022/07/05 10:21:47;;;;;;;3.57;1.33;;;22.30;99.90;;;;;;4983051;28;20544;-52
2022/07/05 10:24:16;;;;;;;2.33;1.40;;;22.60;99.90;;;;;;4986397;28;20480;-52
2022/07/05 10:26:47;;;;;;;2.53;1.63;;;22.70;99.90;;;;;;4982183;28;20465;-52
2022/07/05 10:29:15;;;;;;;3.37;1.60;;;22.60;99.90;;;;;;4996290;28;20543;-53
2022/07/05 10:31:42;;;;;;;1.47;1.20;;;22.50;99.90;;;;;;4984408;28;20537;-51
2022/07/05 10:34:09;;;;;;;5.70;1.30;;;22.40;99.90;;;;;;4984315;28;20530;-51
2022/07/05 10:36:38;;;;;;;1.83;1.60;;;22.20;99.90;;;;;;4990525;28;20494;-52
2022/07/05 10:39:06;;;;;;;0.90;0.80;;;22.00;99.90;;;;;;4985936;28;20489;-53
2022/07/05 10:41:33;;;;;;;3.03;1.30;;;21.90;99.90;;;;;;4982144;28;20958;-51
2022/07/05 10:44:01;;;;;;;3.43;1.37;;;22.10;99.90;;;;;;4987330;28;20885;-52
2022/07/05 10:46:36;;;;;;;10.30;1.50;;;22.50;99.90;;;;;;4982976;28;20452;-51
2022/07/05 10:49:15;;;;;;;6.10;1.20;;;22.70;99.90;;;;;;4988969;28;20424;-52
2022/07/05 10:51:42;;;;;;;1.67;1.30;;;23.10;99.90;;;;;;4985315;28;20926;-53
2022/07/05 10:54:09;;;;;;;2.40;1.00;;;23.40;99.90;;;;;;4989610;28;20453;-53
2022/07/05 10:56:36;;;;;;;4.80;1.00;;;23.40;99.90;;;;;;4981691;28;20993;-52
2022/07/05 10:59:12;;;;;;;1.57;1.13;;;23.00;99.90;;;;;;4985136;28;20957;-51
2022/07/05 11:01:41;;;;;;;4.63;1.20;;;23.10;99.90;;;;;;4982980;28;20444;-53
2022/07/05 11:04:26;;;;;;;2.47;1.50;;;23.10;99.90;;;;;;4988665;28;21012;-53
2022/07/05 11:06:53;;;;;;;3.33;1.53;;;23.10;99.90;;;;;;4985712;28;21545;-51
2022/07/05 11:09:21;;;;;;;3.43;1.20;;;23.20;99.90;;;;;;4985415;28;20457;-52
2022/07/05 11:12:02;;;;;;;3.03;1.73;;;22.90;99.90;;;;;;4984579;28;20471;-54
2022/07/05 11:14:38;;;;;;;1.17;1.07;;;23.20;99.90;;;;;;4990632;28;20488;-51
2022/07/05 11:17:15;;;;;;;2.90;1.20;;;23.30;99.90;;;;;;4992206;28;21023;-52
2022/07/05 11:20:05;;;;;;;2.83;1.07;;;23.50;99.90;;;;;;4989208;28;20520;-52
2022/07/05 11:22:33;;;;;;;3.83;1.17;;;23.50;99.90;;;;;;4982125;28;21006;-51
2022/07/05 11:25:01;;;;;;;4.70;1.37;;;23.40;99.90;;;;;;4991317;28;20476;-51
2022/07/05 11:27:28;;;;;;;4.73;1.30;;;23.30;99.90;;;;;;4975098;28;20986;-52
2022/07/05 11:29:56;;;;;;;2.00;1.50;;;23.30;99.90;;;;;;4984957;28;20523;-52
2022/07/05 11:32:34;;;;;;;5.80;1.70;;;23.50;99.90;;;;;;4983070;28;20465;-52
2022/07/05 11:35:15;;;;;;;2.03;1.23;;;23.70;99.90;;;;;;4978719;28;20637;-53
2022/07/05 11:38:03;;;;;;;3.13;1.43;;;23.90;99.90;;;;;;4981858;28;20491;-52
2022/07/05 11:40:34;;;;;;;1.80;1.20;;;24.10;99.90;;;;;;4981087;28;20484;-53
2022/07/05 11:43:02;;;;;;;1.30;1.20;;;24.10;99.90;;;;;;4980743;28;21242;-51
2022/07/05 11:45:31;;;;;;;4.10;0.97;;;24.20;99.90;;;;;;4984496;28;20515;-51
2022/07/05 11:47:58;;;;;;;4.40;1.40;;;24.30;99.90;;;;;;4989287;28;20457;-52
2022/07/05 11:50:30;;;;;;;6.20;1.10;;;24.40;99.90;;;;;;4979982;28;21007;-53
2022/07/05 11:52:57;;;;;;;3.47;1.50;;;24.10;99.90;;;;;;4983715;28;21355;-51
2022/07/05 11:55:27;;;;;;;4.37;1.63;;;24.20;99.90;;;;;;4978229;28;20602;-52
2022/07/05 11:57:55;;;;;;;5.27;2.40;;;24.00;99.90;;;;;;4985218;28;20456;-53
2022/07/05 12:00:35;;;;;;;3.13;1.13;;;23.80;99.90;;;;;;4981802;28;20476;-52
2022/07/05 12:03:11;;;;;;;1.10;1.00;;;23.80;99.90;;;;;;4984980;28;20547;-52
2022/07/05 12:05:37;;;;;;;2.60;1.20;;;23.80;99.90;;;;;;4980129;28;20514;-52
2022/07/05 12:08:05;;;;;;;1.30;1.10;;;23.60;99.90;;;;;;4974730;28;20461;-53
2022/07/05 12:13:16;;;;;;;1.90;1.03;;;23.80;99.90;;;;;;4981896;28;20461;-53
2022/07/05 12:15:46;;;;;;;7.83;1.40;;;23.90;99.90;;;;;;4979556;28;20477;-51
2022/07/05 12:18:14;;;;;;;5.50;2.17;;;24.10;99.90;;;;;;4977022;28;20465;-53
2022/07/05 12:20:41;;;;;;;3.33;1.30;;;24.30;99.90;;;;;;4972232;28;20492;-53
2022/07/05 12:23:08;;;;;;;2.83;1.50;;;24.50;99.90;;;;;;4985407;28;20503;-51
2022/07/05 12:25:36;;;;;;;7.53;1.10;;;24.40;99.90;;;;;;4982578;28;20480;-51
2022/07/05 12:28:06;;;;;;;0.80;0.80;;;24.10;99.90;;;;;;4980617;28;20472;-54
2022/07/05 12:30:33;;;;;;;2.60;1.10;;;23.90;99.90;;;;;;4976108;28;20452;-52
2022/07/05 12:33:02;;;;;;;1.83;1.20;;;23.60;99.90;;;;;;4989040;28;20464;-53
2022/07/05 12:35:36;;;;;;;4.90;1.40;;;23.60;99.90;;;;;;4987868;28;20480;-51
2022/07/05 12:38:05;;;;;;;4.53;1.23;;;23.60;99.90;;;;;;4977555;28;21075;-52
2022/07/05 12:40:32;;;;;;;1.33;0.90;;;23.80;99.90;;;;;;4978923;28;20520;-53
2022/07/05 12:43:07;;;;;;;5.47;1.50;;;23.80;99.90;;;;;;4986494;28;21011;-52
2022/07/05 12:45:35;;;;;;;1.57;1.23;;;23.60;99.90;;;;;;4973195;28;20530;-51
2022/07/05 12:48:05;;;;;;;6.97;0.97;;;23.80;99.90;;;;;;4979745;28;20885;-52
2022/07/05 12:50:46;;;;;;;1.87;0.80;;;23.60;99.90;;;;;;4974087;28;21137;-52
2022/07/05 12:58:51;;;;;;;1.63;1.50;;;23.80;99.90;;;;;;5010680;28;20607;-52
2022/07/05 13:01:24;;;;;;;1.80;1.27;;;23.80;99.90;;;;;;5009244;28;21034;-53
2022/07/05 13:04:10;;;;;;;2.63;1.07;;;24.00;99.90;;;;;;5006421;28;20852;-53